sensor_id;sensor_type;location;lat;lon;timestamp;P1;durP1;ratioP1;P2;durP2;ratioP2
7541;SDS011;3812;50.006;8.230;2022-09-12T00:01:04;17.03;;;9.33;;
7541;SDS011;3812;50.006;8.230;2022-09-12T00:03:31;16.00;;;10.20;;
7541;SDS011;3812;50.006;8.230;2022-09-12T00:05:59;14.43;;;10.17;;
7541;SDS011;3812;50.006;8.230;2022-09-12T00:08:27;15.07;;;10.23;;
7541;SDS011;3812;50.006;8.230;2022-09-12T00:10:54;14.37;;;9.07;;
7541;SDS011;3812;50.006;8.230;2022-09-12T00:13:21;14.37;;;9.33;;
7541;SDS011;3812;50.006;8.230;2022-09-12T00:15:48;14.00;;;9.87;;
7541;SDS011;3812;50.006;8.230;2022-09-12T00:18:16;16.50;;;9.83;;
7541;SDS011;3812;50.006;8.230;2022-09-12T00:20:43;13.23;;;8.93;;
7541;SDS011;3812;50.006;8.230;2022-09-12T00:23:13;12.50;;;8.80;;
7541;SDS011;3812;50.006;8.230;2022-09-12T00:25:40;17.93;;;10.30;;
7541;SDS011;3812;50.006;8.230;2022-09-12T00:28:08;16.43;;;9.57;;
7541;SDS011;3812;50.006;8.230;2022-09-12T00:30:38;14.27;;;10.67;;
7541;SDS011;3812;50.006;8.230;2022-09-12T00:33:05;17.43;;;9.73;;
7541;SDS011;3812;50.006;8.230;2022-09-12T00:35:33;17.30;;;10.03;;
7541;SDS011;3812;50.006;8.230;2022-09-12T00:38:00;14.07;;;9.33;;
7541;SDS011;3812;50.006;8.230;2022-09-12T00:40:29;15.17;;;9.63;;
7541;SDS011;3812;50.006;8.230;2022-09-12T00:42:56;15.43;;;9.43;;
7541;SDS011;3812;50.006;8.230;2022-09-12T00:45:25;15.57;;;9.73;;
7541;SDS011;3812;50.006;8.230;2022-09-12T00:47:53;13.37;;;9.23;;
7541;SDS011;3812;50.006;8.230;2022-09-12T00:50:21;16.73;;;9.90;;
7541;SDS011;3812;50.006;8.230;2022-09-12T00:52:49;14.27;;;9.37;;
7541;SDS011;3812;50.006;8.230;2022-09-12T00:55:18;16.23;;;9.60;;
7541;SDS011;3812;50.006;8.230;2022-09-12T00:57:48;15.43;;;8.87;;
7541;SDS011;3812;50.006;8.230;2022-09-12T01:00:19;14.10;;;9.43;;
7541;SDS011;3812;50.006;8.230;2022-09-12T01:02:48;16.17;;;10.00;;
7541;SDS011;3812;50.006;8.230;2022-09-12T01:05:17;16.40;;;10.00;;
7541;SDS011;3812;50.006;8.230;2022-09-12T01:07:44;17.53;;;9.47;;
7541;SDS011;3812;50.006;8.230;2022-09-12T01:10:14;16.47;;;10.67;;
7541;SDS011;3812;50.006;8.230;2022-09-12T01:12:42;15.90;;;10.03;;
7541;SDS011;3812;50.006;8.230;2022-09-12T01:15:11;17.43;;;10.13;;
7541;SDS011;3812;50.006;8.230;2022-09-12T01:17:41;16.87;;;10.33;;
7541;SDS011;3812;50.006;8.230;2022-09-12T01:20:26;14.87;;;9.33;;
7541;SDS011;3812;50.006;8.230;2022-09-12T01:23:04;16.27;;;9.17;;
7541;SDS011;3812;50.006;8.230;2022-09-12T01:25:37;16.47;;;9.23;;
7541;SDS011;3812;50.006;8.230;2022-09-12T01:28:29;15.97;;;9.80;;
7541;SDS011;3812;50.006;8.230;2022-09-12T01:31:01;17.73;;;10.40;;
7541;SDS011;3812;50.006;8.230;2022-09-12T01:33:37;16.83;;;10.10;;
7541;SDS011;3812;50.006;8.230;2022-09-12T01:36:10;15.70;;;9.77;;
7541;SDS011;3812;50.006;8.230;2022-09-12T01:38:40;16.67;;;9.60;;
7541;SDS011;3812;50.006;8.230;2022-09-12T01:41:13;17.37;;;10.70;;
7541;SDS011;3812;50.006;8.230;2022-09-12T01:43:45;18.47;;;9.70;;
7541;SDS011;3812;50.006;8.230;2022-09-12T01:46:17;16.60;;;9.83;;
7541;SDS011;3812;50.006;8.230;2022-09-12T01:48:46;15.90;;;9.80;;
7541;SDS011;3812;50.006;8.230;2022-09-12T01:51:17;13.73;;;9.43;;
7541;SDS011;3812;50.006;8.230;2022-09-12T01:53:45;17.60;;;10.17;;
7541;SDS011;3812;50.006;8.230;2022-09-12T01:56:16;18.30;;;10.67;;
7541;SDS011;3812;50.006;8.230;2022-09-12T01:58:47;17.40;;;10.13;;
7541;SDS011;3812;50.006;8.230;2022-09-12T02:01:19;16.47;;;10.37;;
7541;SDS011;3812;50.006;8.230;2022-09-12T02:03:47;19.33;;;10.63;;
7541;SDS011;3812;50.006;8.230;2022-09-12T02:06:17;21.80;;;10.57;;
7541;SDS011;3812;50.006;8.230;2022-09-12T02:08:45;15.73;;;10.03;;
7541;SDS011;3812;50.006;8.230;2022-09-12T02:11:13;17.87;;;9.83;;
7541;SDS011;3812;50.006;8.230;2022-09-12T02:13:41;18.73;;;10.53;;
7541;SDS011;3812;50.006;8.230;2022-09-12T02:16:10;16.40;;;10.20;;
7541;SDS011;3812;50.006;8.230;2022-09-12T02:18:39;16.73;;;10.73;;
7541;SDS011;3812;50.006;8.230;2022-09-12T02:21:09;18.83;;;10.00;;
7541;SDS011;3812;50.006;8.230;2022-09-12T02:23:37;16.93;;;10.60;;
7541;SDS011;3812;50.006;8.230;2022-09-12T02:26:07;18.00;;;10.73;;
7541;SDS011;3812;50.006;8.230;2022-09-12T02:28:37;19.67;;;10.93;;
7541;SDS011;3812;50.006;8.230;2022-09-12T02:31:06;17.13;;;10.57;;
7541;SDS011;3812;50.006;8.230;2022-09-12T02:33:41;17.47;;;9.73;;
7541;SDS011;3812;50.006;8.230;2022-09-12T02:36:11;17.17;;;10.07;;
7541;SDS011;3812;50.006;8.230;2022-09-12T02:38:44;17.57;;;9.97;;
7541;SDS011;3812;50.006;8.230;2022-09-12T02:41:13;20.57;;;10.60;;
7541;SDS011;3812;50.006;8.230;2022-09-12T02:43:41;18.13;;;11.27;;
7541;SDS011;3812;50.006;8.230;2022-09-12T02:46:09;18.03;;;10.70;;
7541;SDS011;3812;50.006;8.230;2022-09-12T02:48:41;17.93;;;10.93;;
7541;SDS011;3812;50.006;8.230;2022-09-12T02:51:09;19.10;;;10.60;;
7541;SDS011;3812;50.006;8.230;2022-09-12T02:53:37;19.30;;;10.03;;
7541;SDS011;3812;50.006;8.230;2022-09-12T02:56:04;19.70;;;10.60;;
7541;SDS011;3812;50.006;8.230;2022-09-12T02:58:34;20.87;;;10.40;;
7541;SDS011;3812;50.006;8.230;2022-09-12T03:01:02;19.30;;;10.43;;
7541;SDS011;3812;50.006;8.230;2022-09-12T03:03:37;18.17;;;10.53;;
7541;SDS011;3812;50.006;8.230;2022-09-12T03:06:10;21.73;;;9.80;;
7541;SDS011;3812;50.006;8.230;2022-09-12T03:08:58;17.90;;;10.13;;
7541;SDS011;3812;50.006;8.230;2022-09-12T03:11:32;17.87;;;10.40;;
7541;SDS011;3812;50.006;8.230;2022-09-12T03:14:04;19.87;;;10.03;;
7541;SDS011;3812;50.006;8.230;2022-09-12T03:16:34;17.07;;;9.30;;
7541;SDS011;3812;50.006;8.230;2022-09-12T03:19:08;15.83;;;9.53;;
7541;SDS011;3812;50.006;8.230;2022-09-12T03:21:47;16.33;;;9.97;;
7541;SDS011;3812;50.006;8.230;2022-09-12T03:24:19;17.90;;;11.17;;
7541;SDS011;3812;50.006;8.230;2022-09-12T03:26:47;18.17;;;10.17;;
7541;SDS011;3812;50.006;8.230;2022-09-12T03:29:16;18.33;;;10.33;;
7541;SDS011;3812;50.006;8.230;2022-09-12T03:31:47;20.00;;;10.67;;
7541;SDS011;3812;50.006;8.230;2022-09-12T03:34:15;21.87;;;9.97;;
7541;SDS011;3812;50.006;8.230;2022-09-12T03:36:43;18.77;;;9.93;;
7541;SDS011;3812;50.006;8.230;2022-09-12T03:39:11;20.67;;;10.87;;
7541;SDS011;3812;50.006;8.230;2022-09-12T03:41:38;20.43;;;10.93;;
7541;SDS011;3812;50.006;8.230;2022-09-12T03:44:05;20.23;;;11.50;;
7541;SDS011;3812;50.006;8.230;2022-09-12T03:46:33;26.50;;;12.90;;
7541;SDS011;3812;50.006;8.230;2022-09-12T03:49:00;20.10;;;11.60;;
7541;SDS011;3812;50.006;8.230;2022-09-12T03:51:28;24.17;;;11.93;;
7541;SDS011;3812;50.006;8.230;2022-09-12T03:53:56;20.97;;;11.87;;
7541;SDS011;3812;50.006;8.230;2022-09-12T03:56:23;19.93;;;11.50;;
7541;SDS011;3812;50.006;8.230;2022-09-12T03:58:51;18.70;;;10.87;;
7541;SDS011;3812;50.006;8.230;2022-09-12T04:01:19;18.63;;;10.27;;
7541;SDS011;3812;50.006;8.230;2022-09-12T04:03:46;20.97;;;11.67;;
7541;SDS011;3812;50.006;8.230;2022-09-12T04:06:14;18.83;;;10.17;;
7541;SDS011;3812;50.006;8.230;2022-09-12T04:08:42;20.83;;;11.27;;
7541;SDS011;3812;50.006;8.230;2022-09-12T04:11:12;18.60;;;10.23;;
7541;SDS011;3812;50.006;8.230;2022-09-12T04:13:40;24.47;;;11.00;;
7541;SDS011;3812;50.006;8.230;2022-09-12T04:16:08;17.20;;;10.50;;
7541;SDS011;3812;50.006;8.230;2022-09-12T04:18:35;19.23;;;10.57;;
7541;SDS011;3812;50.006;8.230;2022-09-12T04:21:03;23.47;;;11.07;;
7541;SDS011;3812;50.006;8.230;2022-09-12T04:23:30;19.93;;;10.47;;
7541;SDS011;3812;50.006;8.230;2022-09-12T04:25:58;19.43;;;10.87;;
7541;SDS011;3812;50.006;8.230;2022-09-12T04:28:27;20.97;;;11.57;;
7541;SDS011;3812;50.006;8.230;2022-09-12T04:30:54;21.13;;;11.10;;
7541;SDS011;3812;50.006;8.230;2022-09-12T04:33:22;20.80;;;10.53;;
7541;SDS011;3812;50.006;8.230;2022-09-12T04:35:50;19.97;;;10.77;;
7541;SDS011;3812;50.006;8.230;2022-09-12T04:38:17;19.97;;;10.60;;
7541;SDS011;3812;50.006;8.230;2022-09-12T04:40:45;26.03;;;10.53;;
7541;SDS011;3812;50.006;8.230;2022-09-12T04:43:13;22.30;;;12.03;;
7541;SDS011;3812;50.006;8.230;2022-09-12T04:45:42;20.53;;;11.37;;
7541;SDS011;3812;50.006;8.230;2022-09-12T04:48:09;26.50;;;11.67;;
7541;SDS011;3812;50.006;8.230;2022-09-12T04:50:36;17.73;;;10.23;;
7541;SDS011;3812;50.006;8.230;2022-09-12T04:53:04;17.83;;;9.90;;
7541;SDS011;3812;50.006;8.230;2022-09-12T04:55:33;20.03;;;10.33;;
7541;SDS011;3812;50.006;8.230;2022-09-12T04:58:00;19.77;;;10.57;;
7541;SDS011;3812;50.006;8.230;2022-09-12T05:00:27;20.23;;;10.87;;
7541;SDS011;3812;50.006;8.230;2022-09-12T05:02:56;20.53;;;10.53;;
7541;SDS011;3812;50.006;8.230;2022-09-12T05:05:23;21.37;;;11.10;;
7541;SDS011;3812;50.006;8.230;2022-09-12T05:07:51;22.20;;;10.53;;
7541;SDS011;3812;50.006;8.230;2022-09-12T05:10:18;20.83;;;10.70;;
7541;SDS011;3812;50.006;8.230;2022-09-12T05:12:48;21.23;;;11.37;;
7541;SDS011;3812;50.006;8.230;2022-09-12T05:15:15;21.43;;;11.03;;
7541;SDS011;3812;50.006;8.230;2022-09-12T05:17:42;18.80;;;9.83;;
7541;SDS011;3812;50.006;8.230;2022-09-12T05:20:11;22.17;;;11.87;;
7541;SDS011;3812;50.006;8.230;2022-09-12T05:22:38;22.83;;;11.13;;
7541;SDS011;3812;50.006;8.230;2022-09-12T05:25:06;20.10;;;11.23;;
7541;SDS011;3812;50.006;8.230;2022-09-12T05:27:33;22.83;;;12.50;;
7541;SDS011;3812;50.006;8.230;2022-09-12T05:30:01;22.07;;;11.70;;
7541;SDS011;3812;50.006;8.230;2022-09-12T05:32:29;21.53;;;11.00;;
7541;SDS011;3812;50.006;8.230;2022-09-12T05:34:57;23.63;;;12.50;;
7541;SDS011;3812;50.006;8.230;2022-09-12T05:37:26;23.43;;;12.17;;
7541;SDS011;3812;50.006;8.230;2022-09-12T05:39:54;23.73;;;12.13;;
7541;SDS011;3812;50.006;8.230;2022-09-12T05:42:23;22.20;;;12.07;;
7541;SDS011;3812;50.006;8.230;2022-09-12T05:44:51;22.93;;;11.93;;
7541;SDS011;3812;50.006;8.230;2022-09-12T05:47:18;24.53;;;11.67;;
7541;SDS011;3812;50.006;8.230;2022-09-12T05:49:45;21.60;;;11.93;;
7541;SDS011;3812;50.006;8.230;2022-09-12T05:52:15;24.83;;;11.90;;
7541;SDS011;3812;50.006;8.230;2022-09-12T05:54:44;22.43;;;11.77;;
7541;SDS011;3812;50.006;8.230;2022-09-12T05:57:12;25.10;;;11.87;;
7541;SDS011;3812;50.006;8.230;2022-09-12T05:59:39;22.27;;;11.57;;
7541;SDS011;3812;50.006;8.230;2022-09-12T06:02:07;22.77;;;11.10;;
7541;SDS011;3812;50.006;8.230;2022-09-12T06:04:35;32.00;;;13.40;;
7541;SDS011;3812;50.006;8.230;2022-09-12T06:07:02;28.47;;;13.70;;
7541;SDS011;3812;50.006;8.230;2022-09-12T06:09:29;34.57;;;15.83;;
7541;SDS011;3812;50.006;8.230;2022-09-12T06:11:58;34.37;;;16.17;;
7541;SDS011;3812;50.006;8.230;2022-09-12T06:14:25;31.73;;;15.63;;
7541;SDS011;3812;50.006;8.230;2022-09-12T06:16:53;35.10;;;15.30;;
7541;SDS011;3812;50.006;8.230;2022-09-12T06:19:20;31.40;;;15.83;;
7541;SDS011;3812;50.006;8.230;2022-09-12T06:21:49;30.47;;;16.03;;
7541;SDS011;3812;50.006;8.230;2022-09-12T06:24:17;37.67;;;17.33;;
7541;SDS011;3812;50.006;8.230;2022-09-12T06:26:44;37.87;;;17.23;;
7541;SDS011;3812;50.006;8.230;2022-09-12T06:29:13;31.57;;;16.07;;
7541;SDS011;3812;50.006;8.230;2022-09-12T06:31:41;32.80;;;15.23;;
7541;SDS011;3812;50.006;8.230;2022-09-12T06:34:09;37.83;;;16.97;;
7541;SDS011;3812;50.006;8.230;2022-09-12T06:36:38;31.30;;;15.93;;
7541;SDS011;3812;50.006;8.230;2022-09-12T06:39:06;31.30;;;16.17;;
7541;SDS011;3812;50.006;8.230;2022-09-12T06:41:34;38.60;;;17.10;;
7541;SDS011;3812;50.006;8.230;2022-09-12T06:44:01;28.50;;;15.93;;
7541;SDS011;3812;50.006;8.230;2022-09-12T06:46:30;28.03;;;15.33;;
7541;SDS011;3812;50.006;8.230;2022-09-12T06:48:58;29.63;;;16.27;;
7541;SDS011;3812;50.006;8.230;2022-09-12T06:51:25;31.53;;;16.60;;
7541;SDS011;3812;50.006;8.230;2022-09-12T06:53:53;30.37;;;16.80;;
7541;SDS011;3812;50.006;8.230;2022-09-12T06:56:22;29.20;;;16.93;;
7541;SDS011;3812;50.006;8.230;2022-09-12T06:58:50;26.63;;;15.20;;
7541;SDS011;3812;50.006;8.230;2022-09-12T07:01:19;28.27;;;15.17;;
7541;SDS011;3812;50.006;8.230;2022-09-12T07:03:48;26.93;;;15.67;;
7541;SDS011;3812;50.006;8.230;2022-09-12T07:06:17;23.20;;;13.70;;
7541;SDS011;3812;50.006;8.230;2022-09-12T07:08:45;19.93;;;13.37;;
7541;SDS011;3812;50.006;8.230;2022-09-12T07:11:13;20.60;;;12.90;;
7541;SDS011;3812;50.006;8.230;2022-09-12T07:13:41;17.37;;;11.97;;
7541;SDS011;3812;50.006;8.230;2022-09-12T07:16:09;17.30;;;10.73;;
7541;SDS011;3812;50.006;8.230;2022-09-12T07:18:37;17.57;;;11.20;;
7541;SDS011;3812;50.006;8.230;2022-09-12T07:21:07;17.00;;;10.83;;
7541;SDS011;3812;50.006;8.230;2022-09-12T07:23:34;14.23;;;10.00;;
7541;SDS011;3812;50.006;8.230;2022-09-12T07:26:02;17.23;;;10.70;;
7541;SDS011;3812;50.006;8.230;2022-09-12T07:28:30;14.03;;;9.53;;
7541;SDS011;3812;50.006;8.230;2022-09-12T07:31:00;11.83;;;9.07;;
7541;SDS011;3812;50.006;8.230;2022-09-12T07:33:30;14.83;;;9.40;;
7541;SDS011;3812;50.006;8.230;2022-09-12T07:35:59;11.57;;;9.10;;
7541;SDS011;3812;50.006;8.230;2022-09-12T07:38:29;13.37;;;9.50;;
7541;SDS011;3812;50.006;8.230;2022-09-12T07:40:56;12.33;;;9.23;;
7541;SDS011;3812;50.006;8.230;2022-09-12T07:43:24;11.87;;;9.13;;
7541;SDS011;3812;50.006;8.230;2022-09-12T07:45:53;12.57;;;9.13;;
7541;SDS011;3812;50.006;8.230;2022-09-12T07:48:20;12.07;;;9.00;;
7541;SDS011;3812;50.006;8.230;2022-09-12T07:50:48;13.30;;;9.67;;
7541;SDS011;3812;50.006;8.230;2022-09-12T07:53:23;10.70;;;8.37;;
7541;SDS011;3812;50.006;8.230;2022-09-12T07:55:54;13.27;;;9.93;;
7541;SDS011;3812;50.006;8.230;2022-09-12T07:58:22;12.70;;;9.13;;
7541;SDS011;3812;50.006;8.230;2022-09-12T08:00:49;13.37;;;9.20;;
7541;SDS011;3812;50.006;8.230;2022-09-12T08:03:16;10.80;;;8.30;;
7541;SDS011;3812;50.006;8.230;2022-09-12T08:05:44;12.83;;;9.33;;
7541;SDS011;3812;50.006;8.230;2022-09-12T08:08:11;11.67;;;8.70;;
7541;SDS011;3812;50.006;8.230;2022-09-12T08:10:39;12.93;;;8.73;;
7541;SDS011;3812;50.006;8.230;2022-09-12T08:13:07;11.57;;;8.43;;
7541;SDS011;3812;50.006;8.230;2022-09-12T08:15:34;11.77;;;8.20;;
7541;SDS011;3812;50.006;8.230;2022-09-12T08:18:02;10.73;;;8.33;;
7541;SDS011;3812;50.006;8.230;2022-09-12T08:20:29;11.30;;;7.80;;
7541;SDS011;3812;50.006;8.230;2022-09-12T08:22:57;12.43;;;8.47;;
7541;SDS011;3812;50.006;8.230;2022-09-12T08:25:24;14.97;;;8.80;;
7541;SDS011;3812;50.006;8.230;2022-09-12T08:27:52;11.93;;;8.80;;
7541;SDS011;3812;50.006;8.230;2022-09-12T08:30:21;11.23;;;8.23;;
7541;SDS011;3812;50.006;8.230;2022-09-12T08:32:48;9.70;;;8.07;;
7541;SDS011;3812;50.006;8.230;2022-09-12T08:35:16;14.40;;;8.40;;
7541;SDS011;3812;50.006;8.230;2022-09-12T08:37:43;10.73;;;7.90;;
7541;SDS011;3812;50.006;8.230;2022-09-12T08:40:13;10.47;;;7.97;;
7541;SDS011;3812;50.006;8.230;2022-09-12T08:42:45;10.93;;;8.00;;
7541;SDS011;3812;50.006;8.230;2022-09-12T08:45:16;10.13;;;7.47;;
7541;SDS011;3812;50.006;8.230;2022-09-12T08:47:46;11.03;;;7.73;;
7541;SDS011;3812;50.006;8.230;2022-09-12T08:50:16;11.57;;;8.17;;
7541;SDS011;3812;50.006;8.230;2022-09-12T08:52:52;12.90;;;8.20;;
7541;SDS011;3812;50.006;8.230;2022-09-12T08:55:24;10.90;;;8.17;;
7541;SDS011;3812;50.006;8.230;2022-09-12T08:57:51;11.70;;;7.93;;
7541;SDS011;3812;50.006;8.230;2022-09-12T09:00:19;11.93;;;8.00;;
7541;SDS011;3812;50.006;8.230;2022-09-12T09:02:53;11.33;;;8.77;;
7541;SDS011;3812;50.006;8.230;2022-09-12T09:05:28;13.70;;;8.27;;
7541;SDS011;3812;50.006;8.230;2022-09-12T09:08:11;9.97;;;7.37;;
7541;SDS011;3812;50.006;8.230;2022-09-12T09:10:45;10.27;;;7.30;;
7541;SDS011;3812;50.006;8.230;2022-09-12T09:13:16;12.10;;;8.33;;
7541;SDS011;3812;50.006;8.230;2022-09-12T09:16:08;11.07;;;7.93;;
7541;SDS011;3812;50.006;8.230;2022-09-12T09:18:40;11.43;;;8.70;;
7541;SDS011;3812;50.006;8.230;2022-09-12T09:21:11;10.23;;;7.70;;
7541;SDS011;3812;50.006;8.230;2022-09-12T09:23:42;13.03;;;8.00;;
7541;SDS011;3812;50.006;8.230;2022-09-12T09:26:12;11.07;;;7.93;;
7541;SDS011;3812;50.006;8.230;2022-09-12T09:28:41;9.53;;;7.40;;
7541;SDS011;3812;50.006;8.230;2022-09-12T09:31:11;9.63;;;7.10;;
7541;SDS011;3812;50.006;8.230;2022-09-12T09:33:42;10.37;;;8.03;;
7541;SDS011;3812;50.006;8.230;2022-09-12T09:36:12;13.03;;;7.50;;
7541;SDS011;3812;50.006;8.230;2022-09-12T09:38:45;10.57;;;6.97;;
7541;SDS011;3812;50.006;8.230;2022-09-12T09:41:19;10.83;;;7.70;;
7541;SDS011;3812;50.006;8.230;2022-09-12T09:43:49;10.97;;;8.17;;
7541;SDS011;3812;50.006;8.230;2022-09-12T09:46:16;8.10;;;6.67;;
7541;SDS011;3812;50.006;8.230;2022-09-12T09:48:45;12.03;;;7.30;;
7541;SDS011;3812;50.006;8.230;2022-09-12T09:51:15;9.63;;;7.43;;
7541;SDS011;3812;50.006;8.230;2022-09-12T09:53:44;8.60;;;7.33;;
7541;SDS011;3812;50.006;8.230;2022-09-12T09:56:14;10.87;;;7.40;;
7541;SDS011;3812;50.006;8.230;2022-09-12T09:58:46;9.00;;;7.10;;
7541;SDS011;3812;50.006;8.230;2022-09-12T10:01:14;9.07;;;6.60;;
7541;SDS011;3812;50.006;8.230;2022-09-12T10:03:47;9.40;;;6.70;;
7541;SDS011;3812;50.006;8.230;2022-09-12T10:06:22;8.57;;;6.60;;
7541;SDS011;3812;50.006;8.230;2022-09-12T10:08:51;8.10;;;5.70;;
7541;SDS011;3812;50.006;8.230;2022-09-12T10:11:29;7.13;;;5.70;;
7541;SDS011;3812;50.006;8.230;2022-09-12T10:13:58;7.47;;;5.43;;
7541;SDS011;3812;50.006;8.230;2022-09-12T10:16:26;6.90;;;6.13;;
7541;SDS011;3812;50.006;8.230;2022-09-12T10:18:56;8.60;;;6.37;;
7541;SDS011;3812;50.006;8.230;2022-09-12T10:21:25;8.30;;;6.30;;
7541;SDS011;3812;50.006;8.230;2022-09-12T10:23:57;9.40;;;6.13;;
7541;SDS011;3812;50.006;8.230;2022-09-12T10:26:25;8.30;;;5.60;;
7541;SDS011;3812;50.006;8.230;2022-09-12T10:28:53;8.10;;;6.07;;
7541;SDS011;3812;50.006;8.230;2022-09-12T10:31:25;7.00;;;5.40;;
7541;SDS011;3812;50.006;8.230;2022-09-12T10:33:53;6.83;;;5.60;;
7541;SDS011;3812;50.006;8.230;2022-09-12T10:36:22;6.30;;;5.17;;
7541;SDS011;3812;50.006;8.230;2022-09-12T10:38:51;5.87;;;4.83;;
7541;SDS011;3812;50.006;8.230;2022-09-12T10:41:19;5.30;;;4.80;;
7541;SDS011;3812;50.006;8.230;2022-09-12T10:43:47;5.57;;;4.67;;
7541;SDS011;3812;50.006;8.230;2022-09-12T10:46:27;5.27;;;4.30;;
7541;SDS011;3812;50.006;8.230;2022-09-12T10:51:41;5.83;;;4.47;;
7541;SDS011;3812;50.006;8.230;2022-09-12T10:54:09;6.50;;;4.23;;
7541;SDS011;3812;50.006;8.230;2022-09-12T10:56:37;5.80;;;4.30;;
7541;SDS011;3812;50.006;8.230;2022-09-12T10:59:07;5.10;;;4.57;;
7541;SDS011;3812;50.006;8.230;2022-09-12T11:01:39;6.33;;;4.53;;
7541;SDS011;3812;50.006;8.230;2022-09-12T11:04:18;4.87;;;4.43;;
7541;SDS011;3812;50.006;8.230;2022-09-12T11:06:50;5.77;;;4.13;;
7541;SDS011;3812;50.006;8.230;2022-09-12T11:09:20;4.87;;;4.23;;
7541;SDS011;3812;50.006;8.230;2022-09-12T11:11:56;5.60;;;4.97;;
7541;SDS011;3812;50.006;8.230;2022-09-12T11:14:33;6.70;;;4.23;;
7541;SDS011;3812;50.006;8.230;2022-09-12T11:17:03;5.73;;;4.30;;
7541;SDS011;3812;50.006;8.230;2022-09-12T11:22:26;6.43;;;4.70;;
7541;SDS011;3812;50.006;8.230;2022-09-12T11:27:47;4.87;;;4.40;;
7541;SDS011;3812;50.006;8.230;2022-09-12T11:30:17;5.10;;;3.13;;
7541;SDS011;3812;50.006;8.230;2022-09-12T11:32:51;4.97;;;3.53;;
7541;SDS011;3812;50.006;8.230;2022-09-12T11:35:24;4.50;;;3.17;;
7541;SDS011;3812;50.006;8.230;2022-09-12T11:38:16;3.03;;;2.53;;
7541;SDS011;3812;50.006;8.230;2022-09-12T11:40:47;3.90;;;3.50;;
7541;SDS011;3812;50.006;8.230;2022-09-12T11:43:21;3.57;;;3.07;;
7541;SDS011;3812;50.006;8.230;2022-09-12T11:45:49;3.60;;;2.90;;
7541;SDS011;3812;50.006;8.230;2022-09-12T11:48:18;3.03;;;2.78;;
7541;SDS011;3812;50.006;8.230;2022-09-12T11:50:48;2.60;;;2.40;;
7541;SDS011;3812;50.006;8.230;2022-09-12T11:53:18;2.88;;;2.58;;
7541;SDS011;3812;50.006;8.230;2022-09-12T11:55:49;3.25;;;2.85;;
7541;SDS011;3812;50.006;8.230;2022-09-12T11:58:19;3.55;;;2.47;;
7541;SDS011;3812;50.006;8.230;2022-09-12T12:00:48;2.55;;;2.35;;
7541;SDS011;3812;50.006;8.230;2022-09-12T12:03:19;3.40;;;2.85;;
7541;SDS011;3812;50.006;8.230;2022-09-12T12:05:52;3.33;;;2.40;;
7541;SDS011;3812;50.006;8.230;2022-09-12T12:08:21;2.60;;;2.40;;
7541;SDS011;3812;50.006;8.230;2022-09-12T12:10:49;3.05;;;2.42;;
7541;SDS011;3812;50.006;8.230;2022-09-12T12:13:18;2.10;;;1.90;;
7541;SDS011;3812;50.006;8.230;2022-09-12T12:15:48;3.20;;;2.42;;
7541;SDS011;3812;50.006;8.230;2022-09-12T12:18:18;3.78;;;2.33;;
7541;SDS011;3812;50.006;8.230;2022-09-12T12:20:46;3.45;;;2.35;;
7541;SDS011;3812;50.006;8.230;2022-09-12T12:23:25;2.33;;;2.13;;
7541;SDS011;3812;50.006;8.230;2022-09-12T12:25:53;2.50;;;2.22;;
7541;SDS011;3812;50.006;8.230;2022-09-12T12:31:07;3.28;;;2.03;;
7541;SDS011;3812;50.006;8.230;2022-09-12T12:44:59;2.35;;;2.15;;
7541;SDS011;3812;50.006;8.230;2022-09-12T12:47:30;2.50;;;2.28;;
7541;SDS011;3812;50.006;8.230;2022-09-12T12:49:59;2.20;;;2.00;;
7541;SDS011;3812;50.006;8.230;2022-09-12T12:52:27;2.92;;;2.25;;
7541;SDS011;3812;50.006;8.230;2022-09-12T12:54:56;2.15;;;2.00;;
7541;SDS011;3812;50.006;8.230;2022-09-12T12:57:28;3.47;;;1.95;;
7541;SDS011;3812;50.006;8.230;2022-09-12T12:59:57;2.33;;;2.13;;
7541;SDS011;3812;50.006;8.230;2022-09-12T13:02:27;3.33;;;2.20;;
7541;SDS011;3812;50.006;8.230;2022-09-12T13:04:56;2.33;;;2.00;;
7541;SDS011;3812;50.006;8.230;2022-09-12T13:07:25;3.00;;;1.90;;
7541;SDS011;3812;50.006;8.230;2022-09-12T13:09:53;2.35;;;2.15;;
7541;SDS011;3812;50.006;8.230;2022-09-12T13:12:21;2.47;;;2.00;;
7541;SDS011;3812;50.006;8.230;2022-09-12T13:14:53;2.50;;;2.30;;
7541;SDS011;3812;50.006;8.230;2022-09-12T13:17:28;2.08;;;1.88;;
7541;SDS011;3812;50.006;8.230;2022-09-12T13:20:17;1.70;;;1.60;;
7541;SDS011;3812;50.006;8.230;2022-09-12T13:22:45;2.08;;;1.90;;
7541;SDS011;3812;50.006;8.230;2022-09-12T13:25:17;2.55;;;1.80;;
7541;SDS011;3812;50.006;8.230;2022-09-12T13:27:55;2.17;;;1.90;;
7541;SDS011;3812;50.006;8.230;2022-09-12T13:30:22;1.70;;;1.60;;
7541;SDS011;3812;50.006;8.230;2022-09-12T13:32:51;2.45;;;1.67;;
7541;SDS011;3812;50.006;8.230;2022-09-12T13:35:20;1.85;;;1.75;;
7541;SDS011;3812;50.006;8.230;2022-09-12T13:37:50;1.70;;;1.60;;
7541;SDS011;3812;50.006;8.230;2022-09-12T13:40:27;2.17;;;1.70;;
7541;SDS011;3812;50.006;8.230;2022-09-12T13:43:11;1.83;;;1.50;;
7541;SDS011;3812;50.006;8.230;2022-09-12T13:45:40;3.25;;;1.90;;
7541;SDS011;3812;50.006;8.230;2022-09-12T13:48:12;2.20;;;1.77;;
7541;SDS011;3812;50.006;8.230;2022-09-12T13:50:42;2.10;;;1.73;;
7541;SDS011;3812;50.006;8.230;2022-09-12T13:53:13;1.65;;;1.55;;
7541;SDS011;3812;50.006;8.230;2022-09-12T13:55:41;1.65;;;1.55;;
7541;SDS011;3812;50.006;8.230;2022-09-12T13:58:15;1.92;;;1.73;;
7541;SDS011;3812;50.006;8.230;2022-09-12T14:00:43;2.13;;;1.58;;
7541;SDS011;3812;50.006;8.230;2022-09-12T14:03:23;3.45;;;1.60;;
7541;SDS011;3812;50.006;8.230;2022-09-12T14:06:09;2.70;;;1.73;;
7541;SDS011;3812;50.006;8.230;2022-09-12T14:08:37;2.40;;;2.00;;
7541;SDS011;3812;50.006;8.230;2022-09-12T14:11:06;1.98;;;1.45;;
7541;SDS011;3812;50.006;8.230;2022-09-12T14:13:34;2.75;;;1.55;;
7541;SDS011;3812;50.006;8.230;2022-09-12T14:16:03;1.48;;;1.38;;
7541;SDS011;3812;50.006;8.230;2022-09-12T14:18:34;1.75;;;1.60;;
7541;SDS011;3812;50.006;8.230;2022-09-12T14:21:06;1.50;;;1.40;;
7541;SDS011;3812;50.006;8.230;2022-09-12T14:23:34;2.10;;;1.65;;
7541;SDS011;3812;50.006;8.230;2022-09-12T14:26:07;1.60;;;1.40;;
7541;SDS011;3812;50.006;8.230;2022-09-12T14:28:35;2.90;;;1.65;;
7541;SDS011;3812;50.006;8.230;2022-09-12T14:31:03;1.70;;;1.60;;
7541;SDS011;3812;50.006;8.230;2022-09-12T14:33:32;3.70;;;2.00;;
7541;SDS011;3812;50.006;8.230;2022-09-12T14:36:07;1.73;;;1.58;;
7541;SDS011;3812;50.006;8.230;2022-09-12T14:38:35;1.90;;;1.73;;
7541;SDS011;3812;50.006;8.230;2022-09-12T14:41:05;2.08;;;1.60;;
7541;SDS011;3812;50.006;8.230;2022-09-12T14:43:33;2.65;;;1.60;;
7541;SDS011;3812;50.006;8.230;2022-09-12T14:46:02;1.98;;;1.88;;
7541;SDS011;3812;50.006;8.230;2022-09-12T14:48:32;2.50;;;1.40;;
7541;SDS011;3812;50.006;8.230;2022-09-12T14:51:00;2.08;;;1.88;;
7541;SDS011;3812;50.006;8.230;2022-09-12T14:53:33;1.80;;;1.70;;
7541;SDS011;3812;50.006;8.230;2022-09-12T14:56:05;3.60;;;1.90;;
7541;SDS011;3812;50.006;8.230;2022-09-12T14:58:33;3.40;;;1.75;;
7541;SDS011;3812;50.006;8.230;2022-09-12T15:01:00;2.00;;;1.90;;
7541;SDS011;3812;50.006;8.230;2022-09-12T15:03:30;2.58;;;1.90;;
7541;SDS011;3812;50.006;8.230;2022-09-12T15:05:57;2.25;;;2.05;;
7541;SDS011;3812;50.006;8.230;2022-09-12T15:08:27;2.05;;;1.95;;
7541;SDS011;3812;50.006;8.230;2022-09-12T15:10:56;2.35;;;1.80;;
7541;SDS011;3812;50.006;8.230;2022-09-12T15:13:24;2.45;;;2.22;;
7541;SDS011;3812;50.006;8.230;2022-09-12T15:15:52;3.47;;;2.00;;
7541;SDS011;3812;50.006;8.230;2022-09-12T15:18:20;4.13;;;2.30;;
7541;SDS011;3812;50.006;8.230;2022-09-12T15:20:49;2.65;;;1.65;;
7541;SDS011;3812;50.006;8.230;2022-09-12T15:23:17;2.10;;;1.90;;
7541;SDS011;3812;50.006;8.230;2022-09-12T15:25:46;2.00;;;1.90;;
7541;SDS011;3812;50.006;8.230;2022-09-12T15:28:17;2.33;;;2.05;;
7541;SDS011;3812;50.006;8.230;2022-09-12T15:30:45;2.95;;;2.35;;
7541;SDS011;3812;50.006;8.230;2022-09-12T15:33:15;2.78;;;2.20;;
7541;SDS011;3812;50.006;8.230;2022-09-12T15:35:42;2.17;;;1.98;;
7541;SDS011;3812;50.006;8.230;2022-09-12T15:38:09;3.30;;;2.53;;